Time;durP1;ratioP1;P1;durP2;ratioP2;P2;SDS_P1;SDS_P2;PMS_P1;PMS_P2;Temp;Humidity;BMP_temperature;BMP_pressure;BME280_temperature;BME280_humidity;BME280_pressure;Samples;Min_cycle;Max_cycle;Signal;HPM_P1;HPM_P2
2021/04/27 00:01:04;;;;;;;9.83;5.97;;;4.00;80.80;;;;;;5066126;28;20184;-81
2021/04/27 00:03:29;;;;;;;11.33;5.60;;;4.00;80.40;;;;;;5064099;28;20203;-81
2021/04/27 00:05:55;;;;;;;8.67;6.00;;;4.00;80.00;;;;;;5078525;28;20893;-81
2021/04/27 00:08:21;;;;;;;13.10;6.40;;;3.90;80.90;;;;;;5084991;28;20216;-82
2021/04/27 00:10:46;;;;;;;11.57;8.43;;;3.90;81.80;;;;;;5068109;28;20177;-81
2021/04/27 00:13:13;;;;;;;8.17;5.70;;;3.90;82.30;;;;;;5087825;28;20172;-81
2021/04/27 00:15:39;;;;;;;11.20;6.50;;;3.80;84.30;;;;;;5086795;28;20205;-79
2021/04/27 00:18:05;;;;;;;8.70;6.33;;;3.80;84.10;;;;;;5084011;28;20399;-79
2021/04/27 00:20:30;;;;;;;9.47;6.40;;;3.80;84.00;;;;;;5064470;28;20891;-79
2021/04/27 00:22:57;;;;;;;11.00;6.93;;;3.70;85.20;;;;;;5081852;28;20193;-79
2021/04/27 00:25:24;;;;;;;10.20;6.50;;;3.70;86.40;;;;;;5064737;28;20566;-79
2021/04/27 00:27:52;;;;;;;14.93;6.53;;;3.70;87.10;;;;;;5083400;28;20407;-79
2021/04/27 00:30:20;;;;;;;10.17;6.60;;;3.60;87.50;;;;;;5065511;28;21018;-79
2021/04/27 00:32:46;;;;;;;12.87;6.90;;;3.60;87.50;;;;;;5083656;28;20407;-79
2021/04/27 00:35:12;;;;;;;13.40;5.90;;;3.50;88.40;;;;;;5083557;28;20442;-79
2021/04/27 00:37:38;;;;;;;12.70;5.97;;;3.50;88.60;;;;;;5084885;28;20403;-79
2021/04/27 00:40:05;;;;;;;8.90;6.13;;;3.40;89.20;;;;;;5084149;28;20423;-79
2021/04/27 00:42:33;;;;;;;8.93;5.87;;;3.40;90.00;;;;;;5087738;28;20177;-79
2021/04/27 00:44:59;;;;;;;10.43;5.60;;;3.40;90.70;;;;;;5088444;28;20411;-79
2021/04/27 00:47:25;;;;;;;9.07;6.30;;;3.30;91.70;;;;;;5088809;28;20431;-79
2021/04/27 00:49:53;;;;;;;9.50;6.03;;;3.30;92.90;;;;;;5070603;28;20435;-79
2021/04/27 00:52:19;;;;;;;8.93;6.27;;;3.20;94.10;;;;;;5093604;28;20157;-78
2021/04/27 00:54:45;;;;;;;9.57;6.17;;;3.20;94.40;;;;;;5067323;28;20459;-79
2021/04/27 00:57:11;;;;;;;8.97;6.10;;;3.20;94.70;;;;;;5067935;28;20426;-79
2021/04/27 00:59:36;;;;;;;9.90;6.07;;;3.20;94.60;;;;;;5067701;28;20239;-79
2021/04/27 01:02:04;;;;;;;9.10;6.90;;;3.10;94.40;;;;;;5084589;28;20231;-79
2021/04/27 01:04:30;;;;;;;7.23;5.17;;;3.10;94.90;;;;;;5085650;28;20180;-79
2021/04/27 01:06:55;;;;;;;10.63;7.07;;;3.10;95.90;;;;;;5084980;28;20407;-79
2021/04/27 01:09:30;;;;;;;11.67;6.43;;;3.10;96.60;;;;;;5085030;28;20223;-78
2021/04/27 01:12:19;;;;;;;8.97;6.20;;;3.10;96.30;;;;;;5066998;28;20259;-79
2021/04/27 01:15:07;;;;;;;12.97;5.40;;;3.00;96.30;;;;;;5085628;28;20944;-79
2021/04/27 01:17:34;;;;;;;9.70;6.83;;;3.10;97.20;;;;;;5067206;28;20546;-79
2021/04/27 01:20:19;;;;;;;10.97;7.00;;;3.00;98.70;;;;;;5066751;28;20943;-79
2021/04/27 01:22:57;;;;;;;10.93;6.90;;;3.10;98.80;;;;;;5067999;28;20411;-79
2021/04/27 01:25:49;;;;;;;8.10;6.13;;;3.10;99.90;;;;;;5086563;28;20388;-79
2021/04/27 01:28:17;;;;;;;9.67;5.70;;;3.10;99.60;;;;;;5087030;28;20449;-79
2021/04/27 01:30:44;;;;;;;10.23;6.43;;;3.10;98.50;;;;;;5068720;28;20466;-79
2021/04/27 01:33:18;;;;;;;12.93;7.43;;;3.00;99.20;;;;;;5068545;28;20475;-79
2021/04/27 01:35:45;;;;;;;9.03;6.30;;;3.10;99.70;;;;;;5068046;28;20454;-79
2021/04/27 01:38:12;;;;;;;8.57;6.43;;;2.90;99.90;;;;;;5069969;28;20498;-78
2021/04/27 01:40:39;;;;;;;8.83;6.33;;;2.90;99.90;;;;;;5089931;28;20408;-78
2021/04/27 01:43:05;;;;;;;8.73;6.17;;;2.90;99.90;;;;;;5090278;28;20435;-78
2021/04/27 01:45:32;;;;;;;9.80;6.27;;;2.90;99.90;;;;;;5063782;28;20423;-78
2021/04/27 01:48:00;;;;;;;8.17;6.13;;;2.80;99.90;;;;;;5063426;28;20422;-78
2021/04/27 01:50:26;;;;;;;9.60;6.10;;;2.80;99.90;;;;;;5062205;28;20869;-78
2021/04/27 01:52:53;;;;;;;8.47;5.93;;;2.80;99.90;;;;;;5062789;28;20423;-78
2021/04/27 01:55:20;;;;;;;9.27;6.17;;;2.70;99.90;;;;;;5080522;28;20462;-78
2021/04/27 01:57:46;;;;;;;8.03;5.97;;;2.50;99.90;;;;;;5061068;28;20413;-78
2021/04/27 02:00:15;;;;;;;9.03;6.50;;;2.70;99.90;;;;;;5079057;28;20787;-78
2021/04/27 02:02:45;;;;;;;11.47;6.33;;;2.60;99.90;;;;;;5081636;28;20411;-78
2021/04/27 02:05:12;;;;;;;11.90;6.97;;;2.50;99.90;;;;;;5078034;28;20424;-78
2021/04/27 02:07:37;;;;;;;12.63;8.07;;;2.50;99.90;;;;;;5061091;28;20506;-79
2021/04/27 02:10:06;;;;;;;20.57;7.60;;;2.50;99.90;;;;;;5079300;28;20469;-81
2021/04/27 02:12:34;;;;;;;9.47;6.87;;;2.40;99.90;;;;;;5078352;28;20724;-79
2021/04/27 02:15:00;;;;;;;14.17;6.33;;;2.30;99.90;;;;;;5080017;28;20525;-79
2021/04/27 02:17:40;;;;;;;10.13;6.77;;;2.20;99.90;;;;;;5060232;28;20411;-79
2021/04/27 02:20:07;;;;;;;10.37;6.57;;;2.10;99.90;;;;;;5059105;28;20189;-79
2021/04/27 02:22:33;;;;;;;10.27;5.70;;;2.20;99.90;;;;;;5058859;28;20414;-79
2021/04/27 02:25:00;;;;;;;13.33;6.50;;;2.20;99.90;;;;;;5076180;28;20407;-79
2021/04/27 02:27:26;;;;;;;10.80;5.63;;;2.10;99.90;;;;;;5058273;28;20419;-78
2021/04/27 02:29:54;;;;;;;7.90;5.30;;;2.10;99.90;;;;;;5057857;28;20439;-79
2021/04/27 02:32:20;;;;;;;6.37;5.03;;;2.00;99.90;;;;;;5075606;28;20742;-79
2021/04/27 02:34:47;;;;;;;7.53;4.97;;;2.00;99.90;;;;;;5075778;28;20454;-78
2021/04/27 02:37:15;;;;;;;8.83;5.03;;;2.10;99.90;;;;;;5088487;28;20411;-78
2021/04/27 02:39:41;;;;;;;7.70;5.77;;;2.00;99.90;;;;;;5100268;28;20454;-79
2021/04/27 02:42:08;;;;;;;7.70;5.80;;;1.90;99.90;;;;;;5100568;28;20394;-78
2021/04/27 02:44:34;;;;;;;7.20;5.67;;;2.00;99.90;;;;;;5070694;28;20431;-79
2021/04/27 02:47:00;;;;;;;8.93;5.47;;;1.90;99.90;;;;;;5082457;28;20415;-79
2021/04/27 02:49:26;;;;;;;8.93;5.67;;;1.80;99.90;;;;;;5082260;28;20506;-79
2021/04/27 02:51:51;;;;;;;7.70;5.40;;;1.70;99.90;;;;;;5082502;28;20188;-79
2021/04/27 02:54:17;;;;;;;10.93;5.70;;;1.70;99.90;;;;;;5081980;28;20451;-78
2021/04/27 02:56:43;;;;;;;8.57;5.73;;;1.70;99.90;;;;;;5081896;28;20184;-79
2021/04/27 02:59:09;;;;;;;8.03;5.90;;;1.70;99.90;;;;;;5063702;28;20274;-79
2021/04/27 03:01:35;;;;;;;10.37;6.57;;;1.50;99.90;;;;;;5082386;28;20219;-79
2021/04/27 03:04:01;;;;;;;10.20;5.83;;;1.60;99.90;;;;;;5062651;28;20268;-79
2021/04/27 03:06:26;;;;;;;8.40;5.63;;;1.60;99.90;;;;;;5081421;28;20408;-79
2021/04/27 03:08:52;;;;;;;8.40;5.30;;;1.40;99.90;;;;;;5063333;28;20489;-79
2021/04/27 03:11:18;;;;;;;8.77;5.90;;;1.40;99.90;;;;;;5064054;28;20181;-79
2021/04/27 03:13:44;;;;;;;8.37;5.87;;;1.40;99.90;;;;;;5081308;28;20169;-79
2021/04/27 03:16:09;;;;;;;8.37;4.97;;;1.40;99.90;;;;;;5081097;28;20200;-79
2021/04/27 03:18:35;;;;;;;11.03;5.87;;;1.30;99.90;;;;;;5063297;28;20192;-79
2021/04/27 03:21:01;;;;;;;9.30;5.53;;;1.40;99.90;;;;;;5063449;28;20233;-79
2021/04/27 03:23:27;;;;;;;9.93;6.10;;;1.50;99.90;;;;;;5082681;28;20623;-79
2021/04/27 03:25:53;;;;;;;13.03;7.33;;;1.30;99.90;;;;;;5081375;28;20172;-79
2021/04/27 03:28:18;;;;;;;16.00;7.37;;;1.30;99.90;;;;;;5082133;28;20172;-79
2021/04/27 03:30:45;;;;;;;10.77;7.67;;;1.30;99.90;;;;;;5082049;28;20169;-79
2021/04/27 03:33:10;;;;;;;10.40;7.00;;;1.50;99.90;;;;;;5063657;28;20183;-79
2021/04/27 03:35:36;;;;;;;12.23;7.00;;;1.20;99.90;;;;;;5063203;28;20462;-79
2021/04/27 03:38:02;;;;;;;11.93;6.60;;;1.20;99.90;;;;;;5082129;28;20280;-79
2021/04/27 03:40:28;;;;;;;8.93;5.83;;;1.30;99.90;;;;;;5081399;28;20211;-79
2021/04/27 03:42:54;;;;;;;6.97;5.73;;;1.10;99.90;;;;;;5063597;28;20176;-79
2021/04/27 03:45:34;;;;;;;15.30;6.67;;;1.10;99.90;;;;;;5080022;28;20172;-81
2021/04/27 03:48:00;;;;;;;9.00;5.93;;;1.10;99.90;;;;;;5063313;28;20184;-81
2021/04/27 03:50:26;;;;;;;8.93;5.70;;;1.00;99.90;;;;;;5081799;28;20570;-81
2021/04/27 03:52:52;;;;;;;8.13;5.77;;;1.10;99.90;;;;;;5081789;28;20454;-81
2021/04/27 03:55:17;;;;;;;7.87;4.80;;;1.10;99.90;;;;;;5081262;28;20251;-81
2021/04/27 03:57:43;;;;;;;7.83;5.40;;;1.00;99.90;;;;;;5081906;28;20231;-81
2021/04/27 04:00:09;;;;;;;9.67;5.80;;;0.90;99.90;;;;;;5063585;28;20725;-81
2021/04/27 04:02:35;;;;;;;7.93;5.80;;;0.90;99.90;;;;;;5080828;28;20227;-81
2021/04/27 04:05:04;;;;;;;10.27;5.77;;;0.90;99.90;;;;;;5081217;28;20913;-81
2021/04/27 04:07:30;;;;;;;7.23;5.53;;;0.90;99.90;;;;;;5083091;28;20169;-82
2021/04/27 04:09:56;;;;;;;9.00;5.70;;;0.90;99.90;;;;;;5065226;28;20443;-81
2021/04/27 04:12:21;;;;;;;8.17;5.60;;;0.90;99.90;;;;;;5065005;28;20188;-81
2021/04/27 04:14:47;;;;;;;6.87;4.80;;;0.90;99.90;;;;;;5081915;28;20205;-81
2021/04/27 04:17:13;;;;;;;9.87;6.13;;;0.90;99.90;;;;;;5066544;28;20534;-81
2021/04/27 04:19:39;;;;;;;9.47;5.53;;;1.00;99.90;;;;;;5086578;28;20704;-81
2021/04/27 04:22:07;;;;;;;7.50;5.30;;;0.80;99.90;;;;;;5070476;28;20208;-80
2021/04/27 04:24:33;;;;;;;7.17;4.93;;;0.80;99.90;;;;;;5070274;28;20183;-81
2021/04/27 04:26:59;;;;;;;7.57;5.37;;;0.80;99.90;;;;;;5087372;28;20489;-81
2021/04/27 04:29:25;;;;;;;13.30;5.47;;;0.80;99.90;;;;;;5087475;28;20434;-81
2021/04/27 04:31:51;;;;;;;8.07;4.73;;;0.80;99.90;;;;;;5087155;28;20417;-81
2021/04/27 04:34:18;;;;;;;8.93;5.27;;;0.70;99.90;;;;;;5086401;28;20531;-81
2021/04/27 04:36:44;;;;;;;9.87;5.07;;;0.80;99.90;;;;;;5087842;28;20999;-82
2021/04/27 04:39:09;;;;;;;10.43;4.80;;;0.80;99.90;;;;;;5087529;28;20434;-82
2021/04/27 04:41:35;;;;;;;9.37;5.43;;;0.70;99.90;;;;;;5069479;28;20227;-81
2021/04/27 04:44:01;;;;;;;6.23;4.60;;;0.70;99.90;;;;;;5069949;28;20179;-81
2021/04/27 04:46:27;;;;;;;8.23;5.57;;;0.90;99.90;;;;;;5069695;28;20475;-81
2021/04/27 04:48:53;;;;;;;6.87;5.20;;;1.00;99.90;;;;;;5088119;28;20423;-81
2021/04/27 04:51:19;;;;;;;7.33;5.13;;;1.00;99.90;;;;;;5088438;28;20441;-81
2021/04/27 04:53:45;;;;;;;8.07;5.40;;;1.10;99.90;;;;;;5069906;28;20259;-81
2021/04/27 04:56:11;;;;;;;9.93;4.93;;;1.20;99.90;;;;;;5070177;28;20480;-81
2021/04/27 04:58:36;;;;;;;11.30;5.40;;;1.20;99.90;;;;;;5071416;28;20196;-81
2021/04/27 05:01:03;;;;;;;7.80;4.90;;;1.30;99.90;;;;;;5072785;28;20177;-81
2021/04/27 05:03:29;;;;;;;8.37;5.00;;;1.30;99.90;;;;;;5091196;28;20169;-81
2021/04/27 05:05:54;;;;;;;10.33;5.33;;;1.50;99.90;;;;;;5074683;28;20411;-80
2021/04/27 05:08:34;;;;;;;6.73;5.07;;;1.50;99.90;;;;;;5090886;28;20419;-80
2021/04/27 05:10:59;;;;;;;7.10;5.10;;;1.40;99.90;;;;;;5086026;28;20235;-81
2021/04/27 05:13:25;;;;;;;8.17;5.40;;;1.50;99.90;;;;;;5074545;28;20517;-81
2021/04/27 05:15:51;;;;;;;7.43;4.93;;;1.50;99.90;;;;;;5066618;28;20208;-80
2021/04/27 05:18:16;;;;;;;9.27;4.73;;;1.70;99.90;;;;;;5066944;28;20184;-80
2021/04/27 05:20:42;;;;;;;5.47;4.67;;;1.80;99.90;;;;;;5085580;28;20192;-80
2021/04/27 05:23:08;;;;;;;6.43;4.80;;;1.80;99.90;;;;;;5059514;28;20176;-80
2021/04/27 05:25:34;;;;;;;13.17;5.37;;;1.80;99.90;;;;;;5067805;28;20184;-80
2021/04/27 05:27:59;;;;;;;11.23;5.33;;;1.80;99.90;;;;;;5085869;28;20177;-80
2021/04/27 05:30:25;;;;;;;8.30;5.53;;;2.10;99.90;;;;;;5086452;28;20196;-81
2021/04/27 05:32:51;;;;;;;12.07;5.47;;;2.00;99.90;;;;;;5068542;28;20220;-80
2021/04/27 05:35:17;;;;;;;10.33;5.70;;;2.20;99.90;;;;;;5086872;28;20201;-81
2021/04/27 05:37:43;;;;;;;8.40;5.20;;;2.40;99.90;;;;;;5069892;28;20426;-80
2021/04/27 05:40:09;;;;;;;12.30;6.13;;;2.50;99.90;;;;;;5069926;28;20327;-80
2021/04/27 05:42:35;;;;;;;8.23;5.20;;;2.60;99.90;;;;;;5088555;28;20176;-80
2021/04/27 05:45:02;;;;;;;9.10;5.77;;;2.70;99.90;;;;;;5070340;28;20415;-81
2021/04/27 05:47:29;;;;;;;7.33;5.63;;;2.70;99.90;;;;;;5087987;28;20482;-80
2021/04/27 05:49:54;;;;;;;11.43;5.53;;;2.90;99.90;;;;;;5085625;28;20446;-81
2021/04/27 05:52:20;;;;;;;10.03;5.77;;;3.00;99.90;;;;;;5086900;28;20407;-80
2021/04/27 05:54:46;;;;;;;9.90;7.73;;;3.10;99.90;;;;;;5085832;28;20552;-80
2021/04/27 05:57:11;;;;;;;8.27;5.57;;;3.10;99.90;;;;;;5090393;28;20164;-82
2021/04/27 05:59:37;;;;;;;8.60;5.40;;;3.10;99.90;;;;;;5097626;28;20180;-79
2021/04/27 06:02:04;;;;;;;8.77;6.10;;;3.10;99.90;;;;;;5097972;28;20222;-80
2021/04/27 06:04:30;;;;;;;12.67;6.17;;;3.40;99.90;;;;;;5094555;28;20168;-80
2021/04/27 06:06:55;;;;;;;14.43;5.97;;;3.50;99.90;;;;;;5088597;28;20405;-81
2021/04/27 06:09:21;;;;;;;10.87;6.23;;;3.60;99.90;;;;;;5086716;28;20193;-81
2021/04/27 06:11:46;;;;;;;17.83;6.50;;;3.70;99.90;;;;;;5086427;28;20165;-81
2021/04/27 06:14:12;;;;;;;9.43;6.13;;;3.80;99.90;;;;;;5087503;28;20258;-81
2021/04/27 06:16:38;;;;;;;9.93;5.90;;;3.90;99.90;;;;;;5082641;28;20173;-80
2021/04/27 06:19:04;;;;;;;10.17;6.03;;;4.00;99.90;;;;;;5068376;28;20670;-81
2021/04/27 06:21:30;;;;;;;13.63;6.87;;;4.00;99.90;;;;;;5086602;28;20192;-81
2021/04/27 06:23:56;;;;;;;12.43;6.50;;;4.10;99.90;;;;;;5068356;28;20436;-81
2021/04/27 06:26:22;;;;;;;9.77;6.03;;;4.20;99.90;;;;;;5069031;28;20188;-81
2021/04/27 06:28:49;;;;;;;9.00;6.40;;;4.30;99.90;;;;;;5086864;28;20940;-81
2021/04/27 06:31:14;;;;;;;10.27;6.00;;;4.40;99.90;;;;;;5086787;28;20411;-80
2021/04/27 06:33:40;;;;;;;13.63;6.93;;;4.50;99.90;;;;;;5086693;28;20498;-80
2021/04/27 06:36:06;;;;;;;9.17;6.67;;;4.80;99.90;;;;;;5085659;28;20201;-81
2021/04/27 06:38:32;;;;;;;12.93;6.27;;;4.90;99.90;;;;;;5067321;28;20189;-80
2021/04/27 06:40:58;;;;;;;9.50;6.10;;;5.00;99.90;;;;;;5068465;28;20177;-80
2021/04/27 06:43:24;;;;;;;8.53;5.87;;;5.20;99.90;;;;;;5085259;28;20407;-81
2021/04/27 06:45:49;;;;;;;10.00;6.30;;;5.40;99.90;;;;;;5068126;28;20216;-81
2021/04/27 06:48:16;;;;;;;9.23;6.00;;;5.50;99.90;;;;;;5068627;28;20177;-81
2021/04/27 06:50:42;;;;;;;8.23;6.03;;;5.60;99.90;;;;;;5068783;28;20178;-80
2021/04/27 06:53:08;;;;;;;10.93;6.13;;;5.80;99.90;;;;;;5085734;28;20199;-80
2021/04/27 06:55:34;;;;;;;9.73;5.77;;;5.90;99.90;;;;;;5084131;28;20477;-80
2021/04/27 06:58:08;;;;;;;10.10;6.27;;;6.10;99.90;;;;;;5064983;28;20415;-80
2021/04/27 07:00:35;;;;;;;9.37;6.43;;;6.20;99.90;;;;;;5065049;28;20199;-81
2021/04/27 07:03:01;;;;;;;11.97;6.57;;;6.50;99.90;;;;;;5064877;28;20231;-81
2021/04/27 07:05:27;;;;;;;11.63;6.77;;;6.70;99.90;;;;;;5082948;28;20173;-80
2021/04/27 07:07:52;;;;;;;12.70;5.50;;;6.90;99.90;;;;;;5064922;28;20694;-80
2021/04/27 07:10:19;;;;;;;8.23;6.37;;;7.10;99.90;;;;;;5064658;28;20193;-81
2021/04/27 07:12:44;;;;;;;8.10;5.60;;;7.20;99.90;;;;;;5082957;28;20173;-80
2021/04/27 07:15:10;;;;;;;9.50;6.27;;;7.30;99.90;;;;;;5082345;28;20215;-81
2021/04/27 07:17:36;;;;;;;10.37;6.77;;;7.40;99.90;;;;;;5081886;28;20170;-80
2021/04/27 07:20:03;;;;;;;8.77;6.13;;;7.60;99.90;;;;;;5062610;28;20225;-81
2021/04/27 07:22:29;;;;;;;10.80;6.50;;;7.70;99.90;;;;;;5063553;28;20184;-81
2021/04/27 07:24:56;;;;;;;9.63;6.30;;;7.80;99.90;;;;;;5065063;28;20516;-81
2021/04/27 07:27:22;;;;;;;6.77;5.70;;;7.90;99.90;;;;;;5082558;28;20169;-80
2021/04/27 07:29:49;;;;;;;9.63;6.20;;;8.10;99.90;;;;;;5063946;28;20715;-80
2021/04/27 07:32:15;;;;;;;9.17;6.07;;;8.30;99.90;;;;;;5082261;28;20181;-80
2021/04/27 07:34:41;;;;;;;10.77;6.10;;;8.50;99.90;;;;;;5065363;28;20643;-81
2021/04/27 07:37:08;;;;;;;9.43;6.07;;;8.60;99.90;;;;;;5062853;28;20547;-78
2021/04/27 07:39:34;;;;;;;8.13;5.83;;;9.00;99.90;;;;;;5079645;28;20650;-78
2021/04/27 07:42:00;;;;;;;11.03;6.03;;;9.40;99.90;;;;;;5079975;28;20184;-79
2021/04/27 07:44:26;;;;;;;10.60;6.00;;;9.90;99.90;;;;;;5080493;28;20638;-78
2021/04/27 07:46:51;;;;;;;8.87;6.20;;;10.50;99.60;;;;;;5062429;28;20188;-78
2021/04/27 07:49:17;;;;;;;12.83;6.00;;;11.10;98.00;;;;;;5062164;28;20200;-78
2021/04/27 07:51:43;;;;;;;9.80;6.17;;;11.60;95.70;;;;;;5062712;28;20719;-81
2021/04/27 07:54:09;;;;;;;7.63;6.10;;;11.80;94.60;;;;;;5061502;28;20181;-78
2021/04/27 07:56:35;;;;;;;7.57;6.07;;;12.70;93.60;;;;;;5079258;28;20207;-78
2021/04/27 07:59:03;;;;;;;8.40;6.37;;;13.00;90.20;;;;;;5061107;28;20193;-79
2021/04/27 08:01:30;;;;;;;7.97;5.53;;;13.10;90.30;;;;;;5060827;28;20236;-79
2021/04/27 08:03:56;;;;;;;11.23;6.30;;;13.10;90.90;;;;;;5061406;28;20169;-79
2021/04/27 08:06:22;;;;;;;12.50;6.80;;;13.30;90.40;;;;;;5078611;28;20173;-78
2021/04/27 08:08:48;;;;;;;7.90;5.70;;;13.50;89.20;;;;;;5061513;28;20196;-78
2021/04/27 08:11:14;;;;;;;8.67;5.33;;;14.20;88.80;;;;;;5060919;28;20177;-78
2021/04/27 08:13:40;;;;;;;9.00;5.93;;;14.60;82.90;;;;;;5079107;28;20665;-78
2021/04/27 08:16:06;;;;;;;10.07;5.77;;;14.80;82.10;;;;;;5060070;28;20196;-78
2021/04/27 08:18:32;;;;;;;9.37;5.50;;;15.20;76.60;;;;;;5078465;28;20548;-78
2021/04/27 08:20:58;;;;;;;9.30;6.17;;;15.50;78.00;;;;;;5079733;28;20728;-79
2021/04/27 08:23:24;;;;;;;8.57;5.97;;;15.60;77.30;;;;;;5079302;28;20512;-78
2021/04/27 08:25:49;;;;;;;9.10;5.57;;;15.90;72.70;;;;;;5078651;28;20187;-78
2021/04/27 08:28:15;;;;;;;8.67;6.07;;;16.10;71.10;;;;;;5060192;28;20655;-78
2021/04/27 08:30:41;;;;;;;8.37;5.90;;;16.30;69.50;;;;;;5060426;28;20213;-78
2021/04/27 08:33:06;;;;;;;9.03;5.80;;;16.20;67.00;;;;;;5078619;28;20196;-79
2021/04/27 08:35:32;;;;;;;7.00;6.20;;;16.60;68.40;;;;;;5078678;28;20208;-78
2021/04/27 08:37:58;;;;;;;10.40;5.83;;;16.50;66.20;;;;;;5079160;28;20182;-78
2021/04/27 08:40:23;;;;;;;7.63;6.10;;;16.40;65.10;;;;;;5079270;28;20272;-79
2021/04/27 08:42:50;;;;;;;9.40;6.70;;;16.30;67.90;;;;;;5079333;28;20195;-79
2021/04/27 08:45:17;;;;;;;11.27;6.13;;;16.50;66.40;;;;;;5079462;28;20239;-79
2021/04/27 08:47:43;;;;;;;6.83;6.13;;;16.40;65.90;;;;;;5061321;28;20183;-78
2021/04/27 08:50:11;;;;;;;8.20;6.37;;;16.20;65.70;;;;;;5062190;28;20225;-79
2021/04/27 08:52:37;;;;;;;10.07;6.27;;;16.10;67.40;;;;;;5064634;28;20659;-78
2021/04/27 08:55:04;;;;;;;11.67;6.93;;;15.90;65.60;;;;;;5083472;28;20200;-79
2021/04/27 08:57:30;;;;;;;7.50;5.77;;;15.80;68.00;;;;;;5066171;28;20252;-79
2021/04/27 08:59:55;;;;;;;10.50;6.67;;;16.30;67.90;;;;;;5084319;28;20194;-79
2021/04/27 09:02:29;;;;;;;12.70;6.40;;;16.50;69.90;;;;;;5067249;28;20201;-79
2021/04/27 09:04:55;;;;;;;11.17;6.47;;;16.30;64.30;;;;;;5088015;28;20180;-79
2021/04/27 09:07:23;;;;;;;7.67;6.27;;;15.90;68.00;;;;;;5087463;28;20180;-79
2021/04/27 09:09:55;;;;;;;9.90;7.23;;;16.20;68.30;;;;;;5069487;28;20201;-79
2021/04/27 09:12:24;;;;;;;8.80;6.10;;;16.40;66.10;;;;;;5067426;28;20200;-78
2021/04/27 09:14:51;;;;;;;8.57;6.57;;;16.80;70.60;;;;;;5061666;28;20203;-78
2021/04/27 09:17:18;;;;;;;8.93;6.90;;;16.40;65.70;;;;;;5062188;28;20177;-78
2021/04/27 09:19:49;;;;;;;9.53;6.50;;;16.60;67.30;;;;;;5086762;28;20686;-78
2021/04/27 09:22:16;;;;;;;9.67;6.23;;;16.70;64.30;;;;;;5099815;28;20176;-78
2021/04/27 09:24:53;;;;;;;10.60;6.80;;;16.80;66.10;;;;;;5100751;28;20153;-79
2021/04/27 09:27:44;;;;;;;14.90;7.03;;;16.90;66.90;;;;;;5068866;28;20215;-79
2021/04/27 09:30:19;;;;;;;9.30;5.93;;;16.90;64.70;;;;;;5087583;28;20198;-79
2021/04/27 09:32:51;;;;;;;8.27;6.60;;;16.90;67.30;;;;;;5068532;28;20161;-79
2021/04/27 09:35:41;;;;;;;12.80;7.03;;;16.50;64.10;;;;;;5068613;28;20232;-79
2021/04/27 09:38:16;;;;;;;10.10;6.50;;;16.10;65.50;;;;;;5069715;28;20168;-80
2021/04/27 09:41:02;;;;;;;8.53;6.57;;;16.20;65.70;;;;;;5087417;28;20161;-79
2021/04/27 09:43:33;;;;;;;8.67;6.17;;;16.60;66.90;;;;;;5069545;28;20180;-79
2021/04/27 09:46:01;;;;;;;8.63;6.40;;;16.80;64.30;;;;;;5068738;28;20663;-79
2021/04/27 09:48:31;;;;;;;7.23;6.17;;;16.70;64.10;;;;;;5086575;28;20203;-79
2021/04/27 09:51:20;;;;;;;9.27;7.13;;;17.00;65.60;;;;;;5086681;28;20186;-79
2021/04/27 09:53:51;;;;;;;7.37;6.60;;;17.20;65.70;;;;;;5068613;28;20187;-79
2021/04/27 09:56:38;;;;;;;11.00;7.23;;;17.00;62.40;;;;;;5068121;28;20233;-79
2021/04/27 09:59:08;;;;;;;8.20;7.17;;;17.20;66.30;;;;;;5069702;28;20200;-79
2021/04/27 10:01:35;;;;;;;10.07;7.03;;;17.50;66.40;;;;;;5086490;28;20185;-80
2021/04/27 10:04:01;;;;;;;9.87;7.00;;;17.70;64.30;;;;;;5087813;28;20154;-79
2021/04/27 10:06:28;;;;;;;11.87;6.93;;;17.70;63.50;;;;;;5085667;28;20232;-80
2021/04/27 10:08:55;;;;;;;8.87;7.03;;;17.40;63.10;;;;;;5068784;28;20201;-80
2021/04/27 10:11:24;;;;;;;12.13;7.10;;;17.50;64.10;;;;;;5086798;28;20185;-80
2021/04/27 10:13:51;;;;;;;9.07;7.27;;;17.70;62.70;;;;;;5067027;28;20185;-79
2021/04/27 10:16:17;;;;;;;14.53;7.00;;;17.80;64.90;;;;;;5068164;28;20208;-80
2021/04/27 10:18:43;;;;;;;7.40;6.47;;;18.00;63.50;;;;;;5067738;28;20200;-80
2021/04/27 10:21:11;;;;;;;8.73;7.13;;;18.20;62.80;;;;;;5068122;28;20193;-80
2021/04/27 10:23:41;;;;;;;9.73;6.73;;;17.90;61.80;;;;;;5068788;28;20265;-80
2021/04/27 10:26:10;;;;;;;11.50;6.90;;;17.90;63.30;;;;;;5086352;28;20261;-79
2021/04/27 10:28:55;;;;;;;8.90;7.20;;;17.90;61.80;;;;;;5085944;28;20193;-80
2021/04/27 10:31:20;;;;;;;10.60;7.23;;;18.20;63.10;;;;;;5069206;28;20193;-80
2021/04/27 10:34:01;;;;;;;8.70;7.00;;;18.40;64.40;;;;;;5086850;28;20181;-80
2021/04/27 10:36:28;;;;;;;8.90;6.73;;;18.60;63.30;;;;;;5086536;28;20200;-79
2021/04/27 10:38:56;;;;;;;18.30;6.87;;;18.50;59.70;;;;;;5068577;28;20198;-80
2021/04/27 10:41:25;;;;;;;11.47;6.60;;;18.50;59.80;;;;;;5086240;28;20172;-80
2021/04/27 10:43:56;;;;;;;10.47;7.20;;;18.50;63.70;;;;;;5067689;28;20273;-79
2021/04/27 10:46:22;;;;;;;11.63;6.63;;;18.60;61.50;;;;;;5065884;28;20188;-80
2021/04/27 10:48:48;;;;;;;10.73;7.13;;;18.90;61.70;;;;;;5083667;28;20259;-79
2021/04/27 10:51:20;;;;;;;7.50;6.57;;;19.00;60.20;;;;;;5065451;28;20188;-80
2021/04/27 10:54:18;;;;;;;7.67;6.77;;;19.20;64.10;;;;;;5065782;28;20224;-80
2021/04/27 10:56:56;;;;;;;12.63;6.53;;;19.50;61.60;;;;;;5084197;28;20239;-80
2021/04/27 10:59:30;;;;;;;8.03;7.07;;;19.20;59.70;;;;;;5066877;28;20197;-80
2021/04/27 11:02:12;;;;;;;7.70;6.50;;;19.20;59.90;;;;;;5067694;28;20201;-80
2021/04/27 11:04:43;;;;;;;9.53;6.63;;;19.30;60.50;;;;;;5084369;28;20646;-79
2021/04/27 11:07:24;;;;;;;9.37;6.77;;;18.90;60.10;;;;;;5084241;28;20176;-80
2021/04/27 11:10:03;;;;;;;7.23;6.40;;;19.30;60.50;;;;;;5066961;28;20203;-80
2021/04/27 11:12:29;;;;;;;7.87;7.03;;;19.80;59.10;;;;;;5067664;28;20167;-79
2021/04/27 11:15:04;;;;;;;10.70;6.47;;;19.80;57.80;;;;;;5065976;28;20552;-79
2021/04/27 11:17:54;;;;;;;9.20;6.40;;;19.80;57.00;;;;;;5065923;28;20165;-79
2021/04/27 11:20:45;;;;;;;8.03;7.20;;;19.70;58.50;;;;;;5084810;28;20228;-79
2021/04/27 11:23:34;;;;;;;14.73;7.00;;;19.40;58.80;;;;;;5080635;28;20508;-78
2021/04/27 11:26:00;;;;;;;10.60;6.63;;;19.50;57.10;;;;;;5062306;28;20173;-77
2021/04/27 11:28:53;;;;;;;9.87;7.17;;;20.00;59.20;;;;;;5077785;28;20179;-78
2021/04/27 11:31:19;;;;;;;7.20;6.43;;;20.60;56.10;;;;;;5079515;28;20707;-78
2021/04/27 11:34:01;;;;;;;8.27;6.17;;;20.90;57.80;;;;;;5061866;28;20183;-78
2021/04/27 11:36:41;;;;;;;8.67;6.60;;;21.10;56.40;;;;;;5062436;28;20252;-78
2021/04/27 11:39:13;;;;;;;7.43;5.90;;;21.10;55.70;;;;;;5063095;28;20691;-78
2021/04/27 11:41:55;;;;;;;8.93;6.93;;;21.60;57.60;;;;;;5081122;28;20170;-78
2021/04/27 11:44:32;;;;;;;9.80;6.57;;;21.20;56.00;;;;;;5081894;28;20160;-79
2021/04/27 11:47:00;;;;;;;9.17;6.97;;;21.40;53.80;;;;;;5083574;28;20272;-79
2021/04/27 11:49:48;;;;;;;11.17;7.40;;;20.70;53.50;;;;;;5085243;28;20659;-80
2021/04/27 11:52:15;;;;;;;7.80;6.20;;;21.00;53.10;;;;;;5085758;28;20189;-79
2021/04/27 11:54:42;;;;;;;10.43;6.77;;;21.60;54.70;;;;;;5064552;28;20197;-79
2021/04/27 11:57:17;;;;;;;10.30;7.23;;;21.40;54.50;;;;;;5081990;28;20180;-79
2021/04/27 11:59:43;;;;;;;8.70;6.33;;;21.20;53.60;;;;;;5081841;28;20190;-79
2021/04/27 12:02:14;;;;;;;9.43;7.37;;;21.70;55.90;;;;;;5082139;28;20193;-79
2021/04/27 12:04:41;;;;;;;13.90;6.13;;;22.00;53.10;;;;;;5081865;28;20223;-79
2021/04/27 12:07:07;;;;;;;8.73;6.63;;;22.20;53.50;;;;;;5063438;28;20249;-79
2021/04/27 12:09:43;;;;;;;11.90;7.10;;;22.20;52.80;;;;;;5081450;28;20220;-79
2021/04/27 12:12:13;;;;;;;8.80;6.93;;;22.10;53.10;;;;;;5079971;28;20188;-79
2021/04/27 12:14:52;;;;;;;10.07;6.70;;;22.70;53.30;;;;;;5081320;28;20707;-78
2021/04/27 12:17:29;;;;;;;8.43;7.07;;;23.30;50.80;;;;;;5061388;28;20178;-78
2021/04/27 12:20:22;;;;;;;16.80;6.50;;;23.10;48.80;;;;;;5079070;28;20199;-79
2021/04/27 12:22:50;;;;;;;16.93;6.07;;;23.10;50.30;;;;;;5075700;28;20239;-78
2021/04/27 12:25:27;;;;;;;57.40;8.13;;;23.00;49.60;;;;;;5070422;28;20173;-79
2021/04/27 12:28:04;;;;;;;11.17;6.13;;;23.20;50.40;;;;;;5079094;28;20191;-78
2021/04/27 12:30:31;;;;;;;12.00;6.10;;;23.20;50.80;;;;;;5062656;28;20679;-79
2021/04/27 12:33:11;;;;;;;8.07;6.33;;;22.90;48.60;;;;;;5062546;28;20184;-78
2021/04/27 12:35:39;;;;;;;9.30;5.83;;;23.30;47.90;;;;;;5060800;28;20154;-79
2021/04/27 12:38:08;;;;;;;9.60;6.70;;;24.00;47.90;;;;;;5048235;28;20263;-79
2021/04/27 12:40:43;;;;;;;8.77;6.67;;;24.10;46.90;;;;;;5071840;28;20190;-79
2021/04/27 12:43:12;;;;;;;13.93;6.60;;;23.60;47.90;;;;;;5076431;28;20195;-79
2021/04/27 12:45:43;;;;;;;9.10;6.70;;;23.80;47.80;;;;;;5066593;28;20249;-80
2021/04/27 12:48:09;;;;;;;10.47;6.67;;;23.70;49.20;;;;;;5067321;28;20178;-79
2021/04/27 12:50:50;;;;;;;10.93;6.20;;;23.80;46.10;;;;;;5067419;28;20801;-79
2021/04/27 12:53:17;;;;;;;7.60;6.77;;;23.80;48.10;;;;;;5049843;28;20188;-79
2021/04/27 12:55:54;;;;;;;9.33;6.70;;;23.80;47.70;;;;;;5068086;28;20698;-80